Time;durP1;ratioP1;P1;durP2;ratioP2;P2;SDS_P1;SDS_P2;PMS_P1;PMS_P2;Temp;Humidity;BMP_temperature;BMP_pressure;BME280_temperature;BME280_humidity;BME280_pressure;Samples;Min_cycle;Max_cycle;Signal;HPM_P1;HPM_P2
2022/01/23 00:02:09;;;;;;;0.77;0.77;;;3.90;99.90;;;;;;5015925;28;20056;-88
2022/01/23 00:04:37;;;;;;;1.70;1.33;;;4.00;99.90;;;;;;5031872;28;20053;-88
2022/01/23 00:07:07;;;;;;;3.40;2.40;;;3.90;99.90;;;;;;5031734;28;20056;-88
2022/01/23 00:09:35;;;;;;;5.03;2.92;;;4.00;99.90;;;;;;5031602;28;20100;-88
2022/01/23 00:12:07;;;;;;;1.40;1.30;;;4.00;99.90;;;;;;5016262;28;20053;-89
2022/01/23 00:17:22;;;;;;;1.20;1.10;;;4.10;99.90;;;;;;5016201;28;20050;-88
2022/01/23 00:19:53;;;;;;;0.80;0.80;;;4.10;99.90;;;;;;5032750;28;20053;-88
2022/01/23 00:22:26;;;;;;;1.40;1.30;;;4.10;99.90;;;;;;5039058;28;20396;-88
2022/01/23 00:30:30;;;;;;;2.53;2.42;;;4.20;99.90;;;;;;5016012;28;20058;-88
2022/01/23 00:33:03;;;;;;;1.58;1.55;;;4.20;99.90;;;;;;5031733;28;20050;-88
2022/01/23 00:35:31;;;;;;;1.95;1.40;;;4.20;99.90;;;;;;5031044;28;20053;-88
2022/01/23 00:37:59;;;;;;;1.48;1.38;;;4.10;99.90;;;;;;5031036;28;20052;-89
2022/01/23 00:40:28;;;;;;;1.67;1.58;;;4.10;99.90;;;;;;5030933;28;20128;-88
2022/01/23 00:42:58;;;;;;;1.27;1.17;;;4.10;99.90;;;;;;5031336;28;20050;-88
2022/01/23 00:45:32;;;;;;;1.52;1.42;;;4.00;99.90;;;;;;5030956;28;20137;-88
2022/01/23 00:48:06;;;;;;;2.45;1.58;;;4.10;99.90;;;;;;5031107;28;20502;-88
2022/01/23 00:50:39;;;;;;;2.60;1.58;;;4.10;99.90;;;;;;5030837;28;20045;-88
2022/01/23 00:53:09;;;;;;;2.13;1.90;;;4.10;99.90;;;;;;5031139;28;20413;-89
2022/01/23 00:55:47;;;;;;;1.35;1.27;;;4.00;99.90;;;;;;5030420;28;20136;-88
2022/01/23 00:58:15;;;;;;;2.30;2.10;;;3.90;99.90;;;;;;5030793;28;20076;-88
2022/01/23 01:00:42;;;;;;;1.75;1.65;;;3.80;99.90;;;;;;5030867;28;20161;-88
2022/01/23 01:03:10;;;;;;;1.85;1.75;;;3.70;99.90;;;;;;5030755;28;20046;-88
2022/01/23 01:05:37;;;;;;;1.77;1.67;;;3.70;99.90;;;;;;5030387;28;20049;-88
2022/01/23 01:08:05;;;;;;;1.83;1.73;;;3.70;99.90;;;;;;5030540;28;20133;-88
2022/01/23 01:10:43;;;;;;;1.45;1.35;;;3.60;99.90;;;;;;5030219;28;20060;-89
2022/01/23 01:13:13;;;;;;;1.48;1.38;;;3.50;99.90;;;;;;5030473;28;20054;-89
2022/01/23 01:16:00;;;;;;;1.33;1.33;;;3.50;99.90;;;;;;5030142;28;20057;-88
2022/01/23 01:30:15;;;;;;;1.90;1.80;;;3.50;99.90;;;;;;5015004;28;20046;-88
2022/01/23 01:32:56;;;;;;;1.30;1.20;;;3.70;99.90;;;;;;5014605;28;20050;-88
2022/01/23 01:35:28;;;;;;;0.93;0.93;;;3.70;99.90;;;;;;5014504;28;20149;-88
2022/01/23 01:37:56;;;;;;;2.88;1.30;;;3.70;99.90;;;;;;5029658;28;20064;-89
2022/01/23 01:40:24;;;;;;;2.25;1.60;;;3.70;99.90;;;;;;5029796;28;20554;-88
2022/01/23 01:42:51;;;;;;;1.30;1.20;;;3.70;99.90;;;;;;5030045;28;20081;-88
2022/01/23 01:45:28;;;;;;;1.50;1.40;;;3.70;99.90;;;;;;5029865;28;20081;-88
2022/01/23 01:47:59;;;;;;;1.60;1.48;;;3.70;99.90;;;;;;5030365;28;20451;-88
2022/01/23 01:50:27;;;;;;;1.50;1.40;;;3.70;99.90;;;;;;5029479;28;20145;-88
2022/01/23 01:52:54;;;;;;;2.15;1.50;;;3.70;99.90;;;;;;5014245;28;20133;-88
2022/01/23 01:55:29;;;;;;;1.05;1.05;;;3.70;99.90;;;;;;5029558;28;20136;-89
2022/01/23 01:58:02;;;;;;;1.33;1.23;;;3.70;99.90;;;;;;5029696;28;20550;-88
2022/01/23 02:08:28;;;;;;;1.77;1.40;;;3.80;99.90;;;;;;5013992;28;20088;-89
2022/01/23 02:11:03;;;;;;;2.47;1.50;;;3.80;99.90;;;;;;5029165;28;20132;-89
2022/01/23 02:13:38;;;;;;;1.55;1.35;;;3.80;99.90;;;;;;5029504;28;20142;-89
2022/01/23 02:54:57;;;;;;;1.50;1.40;;;3.50;99.90;;;;;;5013886;28;20054;-89
2022/01/23 03:00:14;;;;;;;1.80;1.70;;;3.50;99.90;;;;;;5013546;28;20102;-89
2022/01/23 03:02:45;;;;;;;1.95;1.75;;;3.50;99.90;;;;;;5029033;28;20073;-90
2022/01/23 03:05:15;;;;;;;2.10;1.90;;;3.60;99.90;;;;;;5028819;28;20066;-89
2022/01/23 03:08:00;;;;;;;1.40;1.38;;;3.60;99.90;;;;;;5028508;28;20056;-89
2022/01/23 03:10:33;;;;;;;1.73;1.63;;;3.60;99.90;;;;;;5028352;28;20137;-89
2022/01/23 03:15:58;;;;;;;1.90;1.80;;;3.60;99.90;;;;;;5013035;28;20046;-90
2022/01/23 03:24:10;;;;;;;1.95;1.80;;;3.60;99.90;;;;;;5016944;28;20164;-90
2022/01/23 03:29:27;;;;;;;2.53;2.25;;;3.50;99.90;;;;;;5016784;28;20137;-89
2022/01/23 03:34:24;;;;;;;2.10;1.90;;;3.50;99.90;;;;;;5016996;28;20049;-89
2022/01/23 03:36:51;;;;;;;2.15;1.80;;;3.40;99.90;;;;;;5031931;28;20149;-89
2022/01/23 03:39:19;;;;;;;1.80;1.70;;;3.40;99.90;;;;;;5031975;28;20073;-89
2022/01/23 03:41:46;;;;;;;3.85;1.90;;;3.40;99.90;;;;;;5031972;28;20085;-89
2022/01/23 03:44:16;;;;;;;2.20;2.10;;;3.40;99.90;;;;;;5032363;28;20566;-89
2022/01/23 03:46:50;;;;;;;1.95;1.85;;;3.40;99.90;;;;;;5032492;28;20073;-89
2022/01/23 03:49:31;;;;;;;2.03;1.83;;;3.40;99.90;;;;;;5032190;28;20149;-89
2022/01/23 03:52:10;;;;;;;3.78;2.03;;;3.30;99.90;;;;;;5031986;28;20054;-89
2022/01/23 03:54:38;;;;;;;4.80;1.80;;;3.30;99.90;;;;;;5031787;28;20069;-89
2022/01/23 03:57:06;;;;;;;2.92;2.10;;;3.30;99.90;;;;;;5032130;28;20058;-89
2022/01/23 03:59:34;;;;;;;1.70;1.60;;;3.30;99.90;;;;;;5032202;28;20136;-89
2022/01/23 04:02:02;;;;;;;3.17;2.00;;;3.30;99.90;;;;;;5032184;28;20141;-89
2022/01/23 04:04:38;;;;;;;2.78;1.92;;;3.30;99.90;;;;;;5031745;28;20049;-88
2022/01/23 04:07:14;;;;;;;3.80;2.22;;;3.30;99.90;;;;;;5032108;28;20060;-88
2022/01/23 04:09:42;;;;;;;3.60;2.15;;;3.30;99.90;;;;;;5032005;28;20086;-89
2022/01/23 04:12:19;;;;;;;2.30;2.10;;;3.30;99.90;;;;;;5032099;28;20551;-89
2022/01/23 04:14:53;;;;;;;1.70;1.60;;;3.30;99.90;;;;;;5032100;28;20054;-89
2022/01/23 04:18:08;;;;;;;3.50;1.63;;;3.30;99.90;;;;;;5031822;28;20132;-89
2022/01/23 04:20:31;;;;;;;1.85;1.75;;;3.20;99.90;;;;;;5016266;28;20141;-89
2022/01/23 04:34:19;;;;;;;2.50;2.30;;;3.30;99.90;;;;;;5015931;28;20050;-90
2022/01/23 05:02:03;;;;;;;2.05;1.63;;;3.40;99.90;;;;;;5015363;28;20145;-89
2022/01/23 05:04:33;;;;;;;2.30;2.10;;;3.40;99.90;;;;;;5030853;28;20073;-90
2022/01/23 05:07:09;;;;;;;3.38;1.92;;;3.40;99.90;;;;;;5030556;28;20053;-89
2022/01/23 05:09:36;;;;;;;4.35;2.63;;;3.40;99.90;;;;;;5030631;28;20070;-88
2022/01/23 05:12:06;;;;;;;3.10;2.72;;;3.30;99.90;;;;;;5030966;28;20486;-89
2022/01/23 05:14:39;;;;;;;5.00;2.72;;;3.30;99.90;;;;;;5030447;28;20137;-89
2022/01/23 05:17:10;;;;;;;1.83;1.73;;;3.30;99.90;;;;;;5030386;28;20085;-89
2022/01/23 05:19:38;;;;;;;2.20;1.98;;;3.30;99.90;;;;;;5030366;28;20069;-89
2022/01/23 05:22:24;;;;;;;1.90;1.70;;;3.30;99.90;;;;;;5030328;28;20136;-89
2022/01/23 05:25:10;;;;;;;2.35;1.50;;;3.30;99.90;;;;;;5030452;28;20144;-89
2022/01/23 05:27:37;;;;;;;1.77;1.50;;;3.30;99.90;;;;;;5014957;28;20148;-89
2022/01/23 05:30:07;;;;;;;1.80;1.70;;;3.30;99.90;;;;;;5029994;28;20141;-89
2022/01/23 05:32:39;;;;;;;1.73;1.50;;;3.30;99.90;;;;;;5030235;28;20558;-89
2022/01/23 05:35:08;;;;;;;1.95;1.85;;;3.30;99.90;;;;;;5030258;28;20133;-89
2022/01/23 05:37:37;;;;;;;2.25;1.75;;;3.30;99.90;;;;;;5029820;28;20494;-88
2022/01/23 05:40:06;;;;;;;1.65;1.55;;;3.20;99.90;;;;;;5014400;28;20554;-89
2022/01/23 05:42:33;;;;;;;3.45;2.50;;;3.20;99.90;;;;;;5029895;28;20070;-89
2022/01/23 05:45:00;;;;;;;2.03;1.90;;;3.20;99.90;;;;;;5029669;28;20179;-89
2022/01/23 05:47:27;;;;;;;1.63;1.50;;;3.20;99.90;;;;;;5029714;28;20133;-89
2022/01/23 05:49:54;;;;;;;2.15;1.80;;;3.20;99.90;;;;;;5029676;28;20562;-89
2022/01/23 05:52:21;;;;;;;1.88;1.77;;;3.20;99.90;;;;;;5029758;28;20498;-89
2022/01/23 05:54:47;;;;;;;1.60;1.50;;;3.10;99.90;;;;;;5029940;28;20129;-89
2022/01/23 05:57:14;;;;;;;1.88;1.60;;;3.20;99.90;;;;;;5029648;28;20054;-89
2022/01/23 05:59:41;;;;;;;2.03;1.90;;;3.20;99.90;;;;;;5029637;28;20058;-89
2022/01/23 06:02:08;;;;;;;3.33;3.05;;;3.20;99.90;;;;;;5029719;28;20136;-89
2022/01/23 06:04:35;;;;;;;4.32;3.92;;;3.20;99.90;;;;;;5029636;28;20137;-90
2022/01/23 06:07:03;;;;;;;3.03;2.72;;;3.20;99.90;;;;;;5029755;28;20145;-89
2022/01/23 06:09:30;;;;;;;3.58;2.50;;;3.20;99.90;;;;;;5029502;28;20080;-89
2022/01/23 06:11:57;;;;;;;2.42;2.22;;;3.20;99.90;;;;;;5029015;28;20554;-89
2022/01/23 06:14:26;;;;;;;1.70;1.60;;;3.20;99.90;;;;;;5029498;28;20136;-89
2022/01/23 06:16:53;;;;;;;2.10;1.85;;;3.20;99.90;;;;;;5029561;28;20114;-89
2022/01/23 06:19:20;;;;;;;2.60;2.40;;;3.10;99.90;;;;;;5029032;28;20054;-89
2022/01/23 06:21:47;;;;;;;2.60;2.40;;;3.10;99.90;;;;;;5029170;28;20148;-89
2022/01/23 06:24:29;;;;;;;2.40;2.20;;;3.10;99.90;;;;;;5029415;28;20472;-89
2022/01/23 06:26:58;;;;;;;2.90;2.58;;;3.20;99.90;;;;;;5029334;28;20113;-89
2022/01/23 06:29:30;;;;;;;2.85;2.60;;;3.20;99.90;;;;;;5029375;28;20483;-89
2022/01/23 06:32:00;;;;;;;2.50;2.30;;;3.20;99.90;;;;;;5028868;28;20077;-89
2022/01/23 06:34:27;;;;;;;2.47;2.28;;;3.20;99.90;;;;;;5029232;28;20045;-89
2022/01/23 06:36:55;;;;;;;2.88;2.53;;;3.20;99.90;;;;;;5028835;28;20141;-89
2022/01/23 06:39:23;;;;;;;2.47;2.22;;;3.20;99.90;;;;;;5029431;28;20152;-89
2022/01/23 06:41:50;;;;;;;3.90;2.65;;;3.20;99.90;;;;;;5029445;28;20076;-89
2022/01/23 06:44:18;;;;;;;4.57;2.70;;;3.20;99.90;;;;;;5029183;28;20128;-89
2022/01/23 06:46:45;;;;;;;2.45;2.25;;;3.20;99.90;;;;;;5028895;28;20054;-89
2022/01/23 06:49:11;;;;;;;2.10;2.00;;;3.20;99.90;;;;;;5029335;28;20502;-89
2022/01/23 06:51:39;;;;;;;2.85;2.65;;;3.10;99.90;;;;;;5028965;28;20137;-89
2022/01/23 06:54:06;;;;;;;4.28;3.88;;;3.10;99.90;;;;;;5028696;28;20077;-89
2022/01/23 06:56:32;;;;;;;7.85;5.32;;;3.10;99.90;;;;;;5029234;28;20498;-89
2022/01/23 06:58:59;;;;;;;5.22;4.72;;;3.10;99.90;;;;;;5029142;28;20217;-89
2022/01/23 07:01:27;;;;;;;5.90;5.30;;;3.20;99.90;;;;;;5028815;28;20054;-89
2022/01/23 07:03:54;;;;;;;11.10;8.98;;;3.10;99.90;;;;;;5028956;28;20046;-89
2022/01/23 07:06:21;;;;;;;8.05;6.47;;;3.10;99.90;;;;;;5028815;28;20160;-89
2022/01/23 07:09:06;;;;;;;10.35;7.60;;;3.10;99.90;;;;;;5026555;28;20061;-89
2022/01/23 07:11:33;;;;;;;9.23;6.85;;;3.10;99.90;;;;;;5028309;28;20050;-89
2022/01/23 07:14:00;;;;;;;17.92;11.35;;;3.20;99.90;;;;;;5028790;28;20132;-89
2022/01/23 07:16:27;;;;;;;26.10;15.40;;;3.20;99.90;;;;;;5012169;28;20116;-89
2022/01/23 07:18:54;;;;;;;13.05;7.68;;;3.20;99.90;;;;;;5012372;28;20141;-88
2022/01/23 07:21:21;;;;;;;10.93;6.70;;;3.10;99.90;;;;;;5028506;28;20541;-89
2022/01/23 07:23:51;;;;;;;18.75;10.02;;;3.10;99.90;;;;;;5028780;28;20070;-89
2022/01/23 07:26:22;;;;;;;20.73;12.50;;;3.20;99.90;;;;;;5009992;28;20096;-89
2022/01/23 07:28:51;;;;;;;16.23;9.05;;;3.10;99.90;;;;;;5011697;28;20141;-89
2022/01/23 07:34:06;;;;;;;13.40;9.30;;;3.20;99.90;;;;;;5012528;28;20052;-89
2022/01/23 07:36:34;;;;;;;21.75;12.38;;;3.20;99.90;;;;;;5027264;28;20572;-89
2022/01/23 07:39:03;;;;;;;22.75;14.32;;;3.20;99.90;;;;;;5010802;28;20137;-89
2022/01/23 07:41:31;;;;;;;34.65;23.30;;;3.20;99.90;;;;;;5011428;28;20093;-90
2022/01/23 07:43:58;;;;;;;25.33;16.33;;;3.20;99.90;;;;;;5011419;28;20137;-89
2022/01/23 07:46:25;;;;;;;20.33;14.00;;;3.20;99.90;;;;;;5011370;28;20561;-89
2022/01/23 07:48:52;;;;;;;20.08;14.85;;;3.30;99.90;;;;;;5011142;28;20049;-89
2022/01/23 07:51:19;;;;;;;20.73;14.77;;;3.30;99.90;;;;;;5011355;28;20453;-90
2022/01/23 07:53:46;;;;;;;13.68;11.35;;;3.40;99.90;;;;;;5012222;28;20546;-89
2022/01/23 07:56:15;;;;;;;8.30;6.82;;;3.40;99.90;;;;;;5011068;28;20060;-90
2022/01/23 07:58:42;;;;;;;8.02;5.38;;;3.40;99.90;;;;;;5027923;28;20473;-90
2022/01/23 08:01:08;;;;;;;6.93;4.65;;;3.40;99.90;;;;;;5027546;28;20089;-90
2022/01/23 08:03:35;;;;;;;6.82;4.40;;;3.50;99.90;;;;;;5027348;28;20046;-90
2022/01/23 08:06:04;;;;;;;7.95;5.25;;;3.40;99.90;;;;;;5029973;28;20601;-90
2022/01/23 08:08:31;;;;;;;6.28;5.18;;;3.50;99.90;;;;;;5030269;28;20085;-90
2022/01/23 08:10:58;;;;;;;7.05;5.13;;;3.50;99.90;;;;;;5031099;28;20089;-90
2022/01/23 08:13:25;;;;;;;6.47;5.00;;;3.70;99.90;;;;;;5015754;28;20174;-90
2022/01/23 08:15:52;;;;;;;8.18;4.88;;;3.70;99.90;;;;;;5030962;28;20144;-90
2022/01/23 08:18:20;;;;;;;8.10;5.47;;;3.80;99.90;;;;;;5030946;28;20072;-90
2022/01/23 08:20:46;;;;;;;20.55;8.80;;;3.80;99.90;;;;;;5030961;28;20057;-90
2022/01/23 08:23:21;;;;;;;10.13;5.20;;;3.80;99.90;;;;;;5029780;28;20144;-90
2022/01/23 08:25:48;;;;;;;11.52;5.10;;;3.80;99.90;;;;;;5030116;28;20823;-90
2022/01/23 08:28:15;;;;;;;10.23;5.70;;;3.80;99.90;;;;;;5030773;28;20049;-89
2022/01/23 08:30:42;;;;;;;43.63;23.67;;;3.90;99.90;;;;;;5030546;28;20141;-90
2022/01/23 08:33:09;;;;;;;14.20;8.18;;;4.00;99.90;;;;;;5014187;28;20058;-90
2022/01/23 08:35:35;;;;;;;9.25;6.55;;;4.10;99.90;;;;;;5030265;28;20491;-90
2022/01/23 08:38:03;;;;;;;29.13;17.30;;;4.20;99.90;;;;;;5030203;28;20049;-91
2022/01/23 08:43:10;;;;;;;11.98;9.45;;;4.30;99.90;;;;;;5013359;28;20399;-90
2022/01/23 08:45:38;;;;;;;9.02;7.47;;;4.40;99.90;;;;;;5030159;28;20210;-89
2022/01/23 08:48:06;;;;;;;14.63;10.13;;;4.50;99.90;;;;;;5029714;28;20555;-89
2022/01/23 08:50:33;;;;;;;15.98;10.98;;;4.60;99.90;;;;;;5013553;28;20099;-88
2022/01/23 08:52:59;;;;;;;12.93;9.02;;;4.50;99.90;;;;;;5013598;28;20140;-88
2022/01/23 08:55:26;;;;;;;11.98;7.63;;;4.60;99.90;;;;;;5029579;28;20105;-88
2022/01/23 08:57:53;;;;;;;9.70;7.25;;;4.70;99.90;;;;;;5029986;28;20089;-88
2022/01/23 09:00:29;;;;;;;12.10;8.60;;;4.70;99.90;;;;;;5029088;28;20053;-90
2022/01/23 09:02:56;;;;;;;7.70;4.80;;;4.70;99.90;;;;;;5029979;28;20081;-90
2022/01/23 09:05:26;;;;;;;8.98;5.70;;;4.80;99.90;;;;;;5029902;28;20050;-90
2022/01/23 09:07:53;;;;;;;7.82;5.93;;;4.90;99.90;;;;;;5029991;28;20081;-90
2022/01/23 09:10:39;;;;;;;8.65;5.63;;;5.10;99.90;;;;;;5030203;28;20574;-90
2022/01/23 09:13:31;;;;;;;8.30;4.70;;;5.30;99.90;;;;;;5029432;28;20570;-90
2022/01/23 09:15:59;;;;;;;6.15;4.70;;;5.50;99.90;;;;;;5013070;28;20129;-89
2022/01/23 09:18:26;;;;;;;4.53;4.15;;;5.60;99.90;;;;;;5029657;28;20145;-90
2022/01/23 09:20:53;;;;;;;3.72;3.40;;;5.80;99.90;;;;;;5029777;28;20050;-90
2022/01/23 09:23:20;;;;;;;4.35;3.65;;;5.80;99.90;;;;;;5014477;28;20069;-89
2022/01/23 09:25:47;;;;;;;3.80;3.35;;;5.80;99.90;;;;;;5029448;28;20140;-89
2022/01/23 09:28:14;;;;;;;4.82;3.38;;;5.90;99.90;;;;;;5029550;28;20045;-87
2022/01/23 09:30:44;;;;;;;4.47;3.50;;;5.90;99.90;;;;;;5029759;28;20056;-87
2022/01/23 09:33:10;;;;;;;4.53;3.40;;;5.80;99.90;;;;;;5029827;28;20141;-87
2022/01/23 09:35:37;;;;;;;3.65;2.50;;;5.90;99.90;;;;;;5029629;28;20128;-87
2022/01/23 09:38:04;;;;;;;1.90;1.80;;;6.00;99.90;;;;;;5029467;28;20391;-88
2022/01/23 09:40:31;;;;;;;2.53;2.30;;;6.00;99.90;;;;;;5028795;28;20077;-89
2022/01/23 09:43:12;;;;;;;1.92;1.83;;;5.90;99.90;;;;;;5030270;28;20060;-87
2022/01/23 09:45:39;;;;;;;2.55;1.80;;;5.80;99.90;;;;;;5030800;28;20482;-87
2022/01/23 09:48:06;;;;;;;3.03;2.30;;;5.80;99.90;;;;;;5031036;28;20490;-89
2022/01/23 09:50:33;;;;;;;3.15;1.95;;;5.70;99.90;;;;;;5030402;28;20530;-89
2022/01/23 09:53:01;;;;;;;6.90;3.53;;;5.60;99.90;;;;;;5030439;28;20447;-89
2022/01/23 09:55:30;;;;;;;8.27;5.85;;;5.60;99.90;;;;;;5030174;28;20099;-89
2022/01/23 09:57:57;;;;;;;7.85;3.53;;;5.60;99.90;;;;;;5030150;28;20050;-89
2022/01/23 10:00:27;;;;;;;18.45;13.02;;;5.50;99.90;;;;;;5030000;28;20556;-90
2022/01/23 10:02:56;;;;;;;116.40;76.53;;;5.50;99.90;;;;;;5014087;28;20056;-88
2022/01/23 10:05:24;;;;;;;19.45;13.15;;;5.30;99.90;;;;;;5012084;28;20069;-89
2022/01/23 10:07:52;;;;;;;2.72;2.53;;;5.30;99.90;;;;;;5012407;28;20073;-89
2022/01/23 10:10:27;;;;;;;4.70;2.60;;;5.40;99.90;;;;;;5029026;28;20144;-89
2022/01/23 10:12:56;;;;;;;2.40;2.22;;;5.50;99.90;;;;;;5028617;28;20123;-89
2022/01/23 10:15:25;;;;;;;2.55;2.35;;;5.60;99.90;;;;;;5028306;28;20153;-89
2022/01/23 10:17:56;;;;;;;3.03;2.50;;;5.60;99.90;;;;;;5011719;28;20064;-89
2022/01/23 10:20:24;;;;;;;6.00;2.40;;;5.70;99.90;;;;;;5013250;28;20141;-90
2022/01/23 10:22:53;;;;;;;2.60;2.40;;;5.70;99.90;;;;;;5013197;28;20046;-89
2022/01/23 10:25:25;;;;;;;2.20;2.00;;;5.80;99.90;;;;;;5028437;28;20072;-89
2022/01/23 10:28:06;;;;;;;3.53;1.98;;;5.90;99.90;;;;;;5027950;28;20157;-89
2022/01/23 10:30:40;;;;;;;1.38;1.27;;;5.90;99.90;;;;;;5028455;28;20064;-90
2022/01/23 10:33:14;;;;;;;3.03;1.35;;;5.90;99.90;;;;;;5013395;28;20528;-89
2022/01/23 10:35:58;;;;;;;1.35;1.23;;;5.80;99.90;;;;;;5013255;28;20053;-89
2022/01/23 10:38:32;;;;;;;0.80;0.80;;;6.10;99.90;;;;;;5028110;28;20137;-89
2022/01/23 10:50:11;;;;;;;0.70;0.70;;;6.60;99.90;;;;;;5013125;28;20462;-89
2022/01/23 10:52:42;;;;;;;0.68;0.60;;;6.60;99.90;;;;;;5012035;28;20068;-89
2022/01/23 10:55:27;;;;;;;1.73;0.90;;;6.60;99.90;;;;;;5027947;28;20081;-89
2022/01/23 10:57:58;;;;;;;0.70;0.70;;;6.80;99.90;;;;;;5028535;28;20141;-87
2022/01/23 11:00:34;;;;;;;1.10;0.60;;;7.10;99.90;;;;;;5012929;28;20058;-87
2022/01/23 11:03:17;;;;;;;1.98;0.50;;;7.20;99.90;;;;;;5028146;28;20049;-87
2022/01/23 11:05:45;;;;;;;0.70;0.70;;;7.20;99.90;;;;;;5027902;28;20533;-89
2022/01/23 11:08:26;;;;;;;1.40;0.70;;;7.00;99.90;;;;;;5028123;28;20057;-89
2022/01/23 11:10:53;;;;;;;0.60;0.60;;;6.90;99.90;;;;;;5028190;28;20052;-88
2022/01/23 11:19:39;;;;;;;1.40;1.30;;;6.70;99.90;;;;;;5012581;28;20121;-89
2022/01/23 11:22:06;;;;;;;0.68;0.68;;;6.80;99.90;;;;;;5027830;28;20096;-89
2022/01/23 11:24:39;;;;;;;1.05;0.85;;;6.80;99.90;;;;;;5012247;28;20060;-89
2022/01/23 11:27:08;;;;;;;0.65;0.65;;;6.80;99.90;;;;;;5027596;28;20050;-89
2022/01/23 11:29:36;;;;;;;0.68;0.60;;;6.60;99.90;;;;;;5027596;28;20100;-88
2022/01/23 11:32:03;;;;;;;0.90;0.73;;;6.80;99.90;;;;;;5028133;28;20417;-89
2022/01/23 11:34:32;;;;;;;0.55;0.55;;;6.80;99.90;;;;;;5027893;28;20141;-88
2022/01/23 11:36:59;;;;;;;1.75;0.80;;;6.80;99.90;;;;;;5028453;28;20090;-88
2022/01/23 11:56:24;;;;;;;0.60;0.60;;;6.70;99.90;;;;;;5016649;28;20116;-88
2022/01/23 11:58:54;;;;;;;0.90;0.90;;;6.50;99.90;;;;;;5031692;28;20073;-87
2022/01/23 12:01:25;;;;;;;1.15;1.15;;;6.60;99.90;;;;;;5031963;28;20259;-87
2022/01/23 12:04:08;;;;;;;0.65;0.65;;;6.50;99.90;;;;;;5031949;28;20463;-86
2022/01/23 12:06:36;;;;;;;0.45;0.40;;;6.50;99.90;;;;;;5031838;28;20045;-86
2022/01/23 12:09:29;;;;;;;0.50;0.50;;;6.60;99.90;;;;;;5031788;28;20089;-86
2022/01/23 12:12:47;;;;;;;0.55;0.40;;;6.50;99.90;;;;;;5014171;28;20478;-86
2022/01/23 12:18:16;;;;;;;0.52;0.52;;;6.50;99.90;;;;;;5015773;28;20050;-88
2022/01/23 12:20:45;;;;;;;0.47;0.43;;;6.40;99.90;;;;;;5031309;28;20494;-89
2022/01/23 12:23:14;;;;;;;0.25;0.25;;;6.40;99.90;;;;;;5030847;28;20049;-89
2022/01/23 12:25:41;;;;;;;0.43;0.43;;;6.60;99.90;;;;;;5031449;28;20058;-88
2022/01/23 12:28:20;;;;;;;0.50;0.50;;;6.50;99.90;;;;;;5030920;28;20050;-88
2022/01/23 12:30:53;;;;;;;0.47;0.47;;;6.70;99.90;;;;;;5016056;28;20049;-88
2022/01/23 12:33:43;;;;;;;0.60;0.60;;;6.80;99.90;;;;;;5015356;28;20090;-88
2022/01/23 12:36:13;;;;;;;0.50;0.50;;;6.90;99.90;;;;;;5031447;28;20129;-88
2022/01/23 12:38:45;;;;;;;0.63;0.63;;;7.10;99.90;;;;;;5031209;28;20049;-88
2022/01/23 12:41:42;;;;;;;0.68;0.68;;;7.00;99.90;;;;;;5031261;28;20057;-88
2022/01/23 12:44:29;;;;;;;0.43;0.43;;;7.00;99.90;;;;;;5002385;28;20509;-86
2022/01/23 12:47:02;;;;;;;0.60;0.60;;;7.10;99.90;;;;;;5014671;28;20443;-86
2022/01/23 12:49:31;;;;;;;0.40;0.40;;;7.10;99.90;;;;;;5030874;28;20410;-86
2022/01/23 12:52:08;;;;;;;0.50;0.50;;;7.20;99.90;;;;;;5030042;28;20331;-86
2022/01/23 12:54:52;;;;;;;0.40;0.40;;;7.30;99.90;;;;;;5030639;28;20053;-86
2022/01/23 12:57:42;;;;;;;0.55;0.35;;;7.30;99.90;;;;;;5014337;28;20400;-85
2022/01/23 13:00:23;;;;;;;0.82;0.60;;;7.50;99.90;;;;;;5030701;28;20053;-86
2022/01/23 13:02:52;;;;;;;0.43;0.40;;;7.30;99.90;;;;;;5030575;28;20077;-85
2022/01/23 13:05:19;;;;;;;1.58;0.32;;;7.30;99.90;;;;;;5030507;28;20050;-86
2022/01/23 13:08:01;;;;;;;0.75;0.55;;;7.40;99.90;;;;;;5030561;28;20503;-86
2022/01/23 13:13:57;;;;;;;0.50;0.50;;;7.30;99.90;;;;;;5014908;28;20505;-86
2022/01/23 13:32:25;;;;;;;0.40;0.40;;;6.70;99.90;;;;;;5014612;28;20052;-87
2022/01/23 13:35:08;;;;;;;1.15;0.50;;;6.60;99.90;;;;;;5029795;28;20128;-89
2022/01/23 13:37:38;;;;;;;0.55;0.50;;;6.50;99.90;;;;;;5029605;28;20532;-86
2022/01/23 13:40:24;;;;;;;1.23;0.85;;;6.60;99.90;;;;;;5029726;28;20141;-88
2022/01/23 13:54:15;;;;;;;0.40;0.40;;;6.50;99.90;;;;;;5014397;28;20054;-88
2022/01/23 13:59:32;;;;;;;1.65;0.50;;;6.50;99.90;;;;;;5014069;28;20046;-88
2022/01/23 14:04:39;;;;;;;0.85;0.68;;;6.30;99.90;;;;;;5013863;28;20502;-89
2022/01/23 14:07:07;;;;;;;0.68;0.68;;;6.20;99.90;;;;;;5029433;28;20046;-88
2022/01/23 14:09:43;;;;;;;0.68;0.40;;;6.20;99.90;;;;;;5014110;28;20054;-89
2022/01/23 14:12:12;;;;;;;0.43;0.43;;;6.20;99.90;;;;;;5013960;28;20133;-88
2022/01/23 14:14:53;;;;;;;0.70;0.70;;;6.20;99.90;;;;;;5029258;28;20498;-89
2022/01/23 14:17:22;;;;;;;1.00;1.00;;;6.20;99.90;;;;;;5014020;28;20479;-89
2022/01/23 14:19:59;;;;;;;1.20;1.20;;;6.10;99.90;;;;;;5029048;28;20050;-89
2022/01/23 14:22:30;;;;;;;0.68;0.65;;;6.20;99.90;;;;;;5029161;28;20048;-89
2022/01/23 14:25:19;;;;;;;0.77;0.60;;;6.20;99.90;;;;;;5029159;28;20066;-89
2022/01/23 14:28:10;;;;;;;1.02;0.63;;;6.20;99.90;;;;;;5013659;28;20582;-88
2022/01/23 14:30:46;;;;;;;0.50;0.40;;;6.20;99.90;;;;;;5029363;28;20076;-88
2022/01/23 14:33:22;;;;;;;0.55;0.55;;;6.20;99.90;;;;;;5028942;28;20049;-89
2022/01/23 14:35:49;;;;;;;1.00;0.57;;;6.20;99.90;;;;;;5029130;28;20137;-89
2022/01/23 14:38:26;;;;;;;0.80;0.80;;;6.20;99.90;;;;;;5013548;28;20049;-89
2022/01/23 14:41:03;;;;;;;0.73;0.70;;;6.10;99.90;;;;;;5028578;28;20050;-89
2022/01/23 14:43:39;;;;;;;1.20;1.15;;;6.10;99.90;;;;;;5028624;28;20156;-89
2022/01/23 14:46:08;;;;;;;0.93;0.70;;;6.00;99.90;;;;;;5028571;28;20103;-89
2022/01/23 14:48:45;;;;;;;0.95;0.70;;;6.00;99.90;;;;;;5028388;28;20064;-88
2022/01/23 14:51:18;;;;;;;0.60;0.60;;;6.00;99.90;;;;;;5013459;28;20509;-87
2022/01/23 14:53:46;;;;;;;1.50;0.88;;;6.00;99.90;;;;;;5013172;28;20142;-89
2022/01/23 14:56:14;;;;;;;0.65;0.65;;;6.00;99.90;;;;;;5028480;28;20096;-88
2022/01/23 14:58:43;;;;;;;0.45;0.45;;;6.00;99.90;;;;;;5028570;28;20082;-89
2022/01/23 15:01:12;;;;;;;0.68;0.68;;;6.00;99.90;;;;;;5028456;28;20113;-88
2022/01/23 15:03:43;;;;;;;1.88;1.10;;;5.90;99.90;;;;;;5013290;28;20050;-89
2022/01/23 15:06:28;;;;;;;0.43;0.40;;;6.00;99.90;;;;;;5026232;28;20074;-88
2022/01/23 15:08:55;;;;;;;1.33;0.70;;;6.00;99.90;;;;;;5028310;28;20602;-88
2022/01/23 15:11:22;;;;;;;0.52;0.52;;;5.90;99.90;;;;;;5028106;28;20053;-88
2022/01/23 15:13:48;;;;;;;0.50;0.50;;;5.90;99.90;;;;;;5029734;28;20470;-89
2022/01/23 15:16:16;;;;;;;1.00;0.40;;;5.80;99.90;;;;;;5032192;28;20461;-88
2022/01/23 15:18:43;;;;;;;0.40;0.40;;;5.90;99.90;;;;;;5017236;28;20145;-89
2022/01/23 15:21:10;;;;;;;0.40;0.40;;;5.80;99.90;;;;;;5032392;28;20042;-89
2022/01/23 15:23:37;;;;;;;0.30;0.30;;;5.80;99.90;;;;;;5032340;28;20060;-88
2022/01/23 15:26:03;;;;;;;0.40;0.40;;;5.80;99.90;;;;;;5016741;28;20045;-88
2022/01/23 15:28:30;;;;;;;1.25;0.60;;;5.80;99.90;;;;;;5032013;28;20050;-88
2022/01/23 15:30:57;;;;;;;2.75;1.35;;;5.70;99.90;;;;;;5032268;28;20129;-88
2022/01/23 15:33:24;;;;;;;0.98;0.98;;;5.70;99.90;;;;;;5031768;28;20473;-89
2022/01/23 15:35:51;;;;;;;1.05;1.05;;;5.70;99.90;;;;;;5031660;28;20041;-89
2022/01/23 15:38:21;;;;;;;0.93;0.90;;;5.80;99.90;;;;;;5031691;28;20141;-89
2022/01/23 15:40:50;;;;;;;0.50;0.50;;;5.80;99.90;;;;;;5016380;28;20133;-88
2022/01/23 15:43:17;;;;;;;0.52;0.50;;;5.80;99.90;;;;;;5016522;28;20050;-88
2022/01/23 15:45:45;;;;;;;0.60;0.60;;;5.70;99.90;;;;;;5031972;28;20378;-88
2022/01/23 15:48:12;;;;;;;1.88;0.90;;;5.70;99.90;;;;;;5031749;28;20516;-89
2022/01/23 15:50:39;;;;;;;1.15;0.68;;;5.70;99.90;;;;;;5031701;28;20049;-87
2022/01/23 15:53:07;;;;;;;0.60;0.60;;;5.60;99.90;;;;;;5016263;28;20145;-88
2022/01/23 15:55:34;;;;;;;0.88;0.88;;;5.60;99.90;;;;;;5031603;28;20053;-88
2022/01/23 15:58:02;;;;;;;1.55;1.35;;;5.50;99.90;;;;;;5031920;28;20045;-89
2022/01/23 16:00:31;;;;;;;0.70;0.70;;;5.50;99.90;;;;;;5031762;28;20050;-89
2022/01/23 16:02:58;;;;;;;0.88;0.70;;;5.50;99.90;;;;;;5016458;28;20050;-88
2022/01/23 16:05:26;;;;;;;2.05;0.88;;;5.40;99.90;;;;;;5016154;28;20499;-89
2022/01/23 16:07:53;;;;;;;0.98;0.90;;;5.40;99.90;;;;;;5031356;28;20056;-88
2022/01/23 16:10:20;;;;;;;0.70;0.70;;;5.40;99.90;;;;;;5031504;28;20050;-89
2022/01/23 16:12:47;;;;;;;1.35;1.25;;;5.40;99.90;;;;;;5016266;28;20072;-88
2022/01/23 16:15:15;;;;;;;1.30;1.27;;;5.40;99.90;;;;;;5031305;28;20046;-89
2022/01/23 16:17:43;;;;;;;1.92;1.83;;;5.40;99.90;;;;;;5016094;28;20168;-88
2022/01/23 16:20:11;;;;;;;1.92;1.80;;;5.30;99.90;;;;;;5031098;28;20133;-88
2022/01/23 16:22:39;;;;;;;1.10;1.10;;;5.30;99.90;;;;;;5015874;28;20073;-86
2022/01/23 16:25:06;;;;;;;1.50;1.40;;;5.40;99.90;;;;;;5029985;28;20054;-86
2022/01/23 16:27:33;;;;;;;2.17;1.80;;;5.30;99.90;;;;;;5015970;28;20057;-86
2022/01/23 16:30:18;;;;;;;1.63;1.52;;;5.40;99.90;;;;;;5029300;28;20132;-86
2022/01/23 16:32:45;;;;;;;2.20;2.00;;;5.40;99.90;;;;;;5030726;28;20053;-88